ZWSH

Kashgar Airport

Kashgar, China
TAF ZWSH 162105Z 1700/1724 32004MPS 6000 FEW040 TXM03/09Z TNM09/00Z BECMG 1704/1705 06004MPS BECMG 1714/1715 32004MPS
Issued Valid From Valid To
Jan-16 @ 21:05 UTC
(8 hours ago)
Jan-17 @ 00:00 UTC
(5 hours ago)
Jan-18 @ 00:00 UTC
(in 19 hours)
Expired Click to View Jan-17 @ 00:00 to Jan-17 @ 04:00
TAF ZWSH 162105Z 1700/1724 32004MPS 6000 FEW040 TXM03/09Z TNM09/00Z
Wind Visibility Clouds
320° at 8 knots 6,003 meters
  • Few at 4,000' AGL
Becoming Jan-17 @ 04:00 to Jan-17 @ 14:00
BECMG 1704/1705 06004MPS
Wind Visibility Clouds
60° at 8 knots 6,003 meters
  • Few at 4,000' AGL
Becoming Jan-17 @ 14:00 to Jan-18 @ 00:00
BECMG 1714/1715 32004MPS
Wind Visibility Clouds
320° at 8 knots 6,003 meters
  • Few at 4,000' AGL
TAF ZWSH 162105Z 1700/1724 32004MPS 6000 FEW040 TXM03/09Z TNM09/00Z BECMG 1704/1705 06004MPS BECMG 1714/1715 32004MPS
Issued Jan-16 @ 21:05 UTC
(8 hours ago)
Valid From Jan-17 @ 00:00 UTC
(5 hours ago)
Valid To Jan-18 @ 00:00 UTC
(in 19 hours)
Jan-17 @ 00:00 - Jan-17 @ 04:00
Wind Visibility
320° at 8 knots 6,003 meters
Clouds
  • Few at 4,000' AGL
Becoming Jan-17 @ 04:00 - Jan-17 @ 14:00
Wind Visibility
60° at 8 knots 6,003 meters
Clouds
  • Few at 4,000' AGL
Becoming Jan-17 @ 14:00 - Jan-18 @ 00:00
Wind Visibility
320° at 8 knots 6,003 meters
Clouds
  • Few at 4,000' AGL